createdAt,value
2022-07-29T00:02:16.603Z,2.28
2022-07-29T00:04:43.502Z,1.80
2022-07-29T00:07:10.336Z,1.88
2022-07-29T00:09:44.870Z,2.05
2022-07-29T00:12:21.384Z,2.45
2022-07-29T00:14:54.827Z,1.83
2022-07-29T00:17:21.646Z,1.88
2022-07-29T00:19:48.252Z,2.38
2022-07-29T00:22:15.174Z,1.90
2022-07-29T00:24:42.010Z,1.70
2022-07-29T00:27:08.708Z,2.28
2022-07-29T00:29:35.631Z,1.73
2022-07-29T00:32:03.740Z,1.92
2022-07-29T00:34:51.228Z,2.10
2022-07-29T00:37:17.918Z,2.10
2022-07-29T00:39:44.880Z,1.88
2022-07-29T00:42:11.568Z,1.88
2022-07-29T00:44:39.820Z,2.17
2022-07-29T00:47:07.546Z,2.00
2022-07-29T00:49:35.270Z,2.05
2022-07-29T00:52:06.064Z,1.95
2022-07-29T00:54:34.349Z,1.80
2022-07-29T00:57:01.835Z,2.78
2022-07-29T00:59:35.121Z,2.20
2022-07-29T01:02:03.632Z,3.08
2022-07-29T01:04:31.844Z,2.00
2022-07-29T01:06:59.083Z,2.15
2022-07-29T01:09:42.106Z,1.92
2022-07-29T01:12:17.713Z,1.50
2022-07-29T01:14:45.298Z,1.60
2022-07-29T01:17:19.659Z,2.33
2022-07-29T01:19:56.947Z,2.00
2022-07-29T01:22:37.419Z,2.08
2022-07-29T01:25:32.205Z,1.92
2022-07-29T01:28:12.443Z,2.17
2022-07-29T01:30:40.866Z,1.65
2022-07-29T01:33:36.258Z,1.92
2022-07-29T01:36:12.949Z,2.22
2022-07-29T01:38:42.790Z,1.92
2022-07-29T01:41:32.317Z,1.90
2022-07-29T01:44:09.917Z,1.95
2022-07-29T01:46:40.706Z,1.80
2022-07-29T01:49:12.371Z,3.10
2022-07-29T01:51:51.288Z,2.30
2022-07-29T01:54:43.888Z,2.10
2022-07-29T01:59:44.292Z,2.08
2022-07-29T02:02:12.490Z,1.90
2022-07-29T02:04:41.262Z,1.77
2022-07-29T02:07:11.643Z,2.65
2022-07-29T02:09:40.512Z,1.60
2022-07-29T02:12:08.930Z,1.92
2022-07-29T02:14:39.386Z,1.60
2022-07-29T02:17:06.539Z,2.47
2022-07-29T02:19:34.632Z,2.35
2022-07-29T02:22:02.886Z,2.22
2022-07-29T02:24:31.745Z,1.98
2022-07-29T02:27:00.114Z,2.17
2022-07-29T02:29:29.350Z,2.25
2022-07-29T02:31:57.992Z,1.83
2022-07-29T02:34:25.861Z,1.88
2022-07-29T02:36:55.162Z,1.98
2022-07-29T02:39:23.673Z,2.22
2022-07-29T02:41:55.405Z,2.08
2022-07-29T02:44:25.082Z,2.40
2022-07-29T02:47:11.289Z,2.35
2022-07-29T02:49:41.554Z,2.72
2022-07-29T02:52:17.448Z,2.25
2022-07-29T02:54:52.816Z,2.10
2022-07-29T02:57:54.603Z,2.90
2022-07-29T03:00:27.670Z,2.30
2022-07-29T03:02:57.640Z,2.28
2022-07-29T03:05:24.673Z,2.40
2022-07-29T03:08:04.692Z,1.90
2022-07-29T03:10:32.096Z,2.20
2022-07-29T03:12:59.835Z,1.88
2022-07-29T03:15:27.469Z,2.00
2022-07-29T03:17:57.487Z,3.28
2022-07-29T03:20:24.852Z,2.17
2022-07-29T03:22:52.180Z,2.20
2022-07-29T03:25:20.906Z,3.10
2022-07-29T03:27:48.819Z,2.30
2022-07-29T03:30:21.726Z,2.20
2022-07-29T03:32:52.220Z,1.80
2022-07-29T03:35:20.575Z,2.22
2022-07-29T03:37:47.553Z,2.28
2022-07-29T03:40:20.760Z,2.30
2022-07-29T03:42:49.595Z,3.22
2022-07-29T03:45:19.816Z,2.30
2022-07-29T03:47:54.727Z,2.13
2022-07-29T03:50:24.181Z,2.10
2022-07-29T03:52:51.364Z,2.45
2022-07-29T03:55:18.163Z,2.42
2022-07-29T03:57:46.484Z,2.22
2022-07-29T04:00:14.292Z,2.53
2022-07-29T04:02:41.280Z,2.40
2022-07-29T04:05:13.740Z,2.67
2022-07-29T04:07:41.752Z,2.88
2022-07-29T04:10:09.467Z,2.53
2022-07-29T04:12:36.638Z,2.70
2022-07-29T04:15:06.609Z,2.38
2022-07-29T04:17:33.205Z,2.60
2022-07-29T04:19:59.921Z,3.42
2022-07-29T04:22:26.758Z,2.60
2022-07-29T04:24:57.085Z,2.70
2022-07-29T04:27:25.982Z,2.90
2022-07-29T04:29:57.067Z,2.53
2022-07-29T04:32:25.372Z,2.47
2022-07-29T04:34:52.083Z,2.78
2022-07-29T04:37:19.104Z,2.38
2022-07-29T04:39:45.871Z,3.45
2022-07-29T04:42:13.780Z,4.13
2022-07-29T04:44:43.260Z,2.30
2022-07-29T04:47:10.434Z,2.83
2022-07-29T04:49:39.556Z,2.85
2022-07-29T04:52:06.903Z,2.80
2022-07-29T04:54:34.063Z,2.80
2022-07-29T04:57:00.809Z,3.17
2022-07-29T04:59:27.975Z,3.15
2022-07-29T05:01:54.783Z,2.97
2022-07-29T05:04:21.561Z,2.67
2022-07-29T05:06:49.093Z,2.72
2022-07-29T05:09:16.062Z,2.88
2022-07-29T05:11:42.722Z,2.90
2022-07-29T05:14:09.375Z,3.17
2022-07-29T05:16:36.105Z,3.08
2022-07-29T05:19:02.830Z,3.90
2022-07-29T05:21:29.470Z,2.83
2022-07-29T05:23:56.260Z,3.47
2022-07-29T05:26:23.295Z,3.72
2022-07-29T05:28:49.952Z,3.15
2022-07-29T05:31:16.846Z,3.25
2022-07-29T05:33:43.548Z,3.08
2022-07-29T05:36:10.406Z,4.00
2022-07-29T05:38:37.431Z,3.17
2022-07-29T05:41:05.624Z,3.42
2022-07-29T05:43:32.760Z,2.80
2022-07-29T05:45:59.543Z,3.00
2022-07-29T05:48:26.459Z,3.40
2022-07-29T05:50:53.133Z,3.97
2022-07-29T05:53:20.785Z,3.42
2022-07-29T05:55:48.629Z,2.72
2022-07-29T05:58:15.797Z,3.30
2022-07-29T06:00:42.953Z,3.22
2022-07-29T06:03:09.651Z,3.45
2022-07-29T06:05:36.401Z,3.25
2022-07-29T06:08:06.707Z,2.70
2022-07-29T06:10:35.668Z,3.22
2022-07-29T06:13:02.344Z,3.10
2022-07-29T06:15:29.029Z,3.70
2022-07-29T06:17:59.043Z,3.85
2022-07-29T06:20:31.873Z,3.22
2022-07-29T06:22:59.445Z,3.33
2022-07-29T06:25:27.229Z,3.22
2022-07-29T06:27:54.528Z,3.13
2022-07-29T06:30:21.156Z,3.47
2022-07-29T06:32:48.187Z,2.92
2022-07-29T06:35:41.447Z,3.58
2022-07-29T06:38:02.130Z,2.97
2022-07-29T06:40:47.716Z,3.13
2022-07-29T06:43:14.536Z,3.20
2022-07-29T06:45:42.492Z,3.70
2022-07-29T06:48:10.092Z,3.42
2022-07-29T06:50:37.085Z,3.53
2022-07-29T06:53:04.247Z,3.45
2022-07-29T06:55:30.924Z,3.63
2022-07-29T06:57:57.578Z,3.30
2022-07-29T07:00:24.311Z,3.30
2022-07-29T07:02:51.181Z,4.20
2022-07-29T07:05:17.955Z,3.42
2022-07-29T07:07:44.549Z,3.78
2022-07-29T07:10:11.231Z,3.85
2022-07-29T07:12:37.915Z,3.38
2022-07-29T07:15:05.073Z,3.65
2022-07-29T07:17:31.712Z,3.88
2022-07-29T07:19:58.322Z,3.67
2022-07-29T07:22:24.965Z,4.18
2022-07-29T07:24:51.624Z,3.95
2022-07-29T07:27:18.276Z,3.22
2022-07-29T07:29:44.914Z,3.20
2022-07-29T07:32:11.859Z,3.95
2022-07-29T07:34:38.988Z,3.28
2022-07-29T07:37:06.211Z,4.50
2022-07-29T07:39:32.949Z,4.32
2022-07-29T07:41:59.695Z,3.65
2022-07-29T07:44:26.532Z,4.55
2022-07-29T07:46:54.668Z,3.22
2022-07-29T07:49:21.678Z,3.55
2022-07-29T07:51:50.676Z,3.30
2022-07-29T07:54:18.531Z,3.22
2022-07-29T07:56:50.002Z,3.60
2022-07-29T07:59:20.082Z,3.25
2022-07-29T08:01:47.573Z,3.00
2022-07-29T08:04:27.357Z,3.88
2022-07-29T08:06:56.414Z,3.60
2022-07-29T08:09:31.180Z,3.35
2022-07-29T08:12:00.092Z,3.13
2022-07-29T08:14:26.777Z,2.78
2022-07-29T08:16:53.586Z,2.63
2022-07-29T08:19:20.582Z,2.92
2022-07-29T08:21:47.447Z,2.80
2022-07-29T08:24:32.539Z,3.80
2022-07-29T08:26:59.445Z,3.22
2022-07-29T08:29:26.100Z,3.17
2022-07-29T08:31:52.986Z,3.20
2022-07-29T08:34:24.453Z,3.45
2022-07-29T08:36:54.981Z,3.60
2022-07-29T08:39:21.703Z,3.67
2022-07-29T08:41:48.787Z,3.78
2022-07-29T08:44:30.600Z,3.85
2022-07-29T08:46:57.741Z,3.58
2022-07-29T08:49:24.587Z,3.65
2022-07-29T08:51:52.446Z,3.08
2022-07-29T08:54:19.776Z,3.33
2022-07-29T08:56:50.907Z,3.50
2022-07-29T08:59:22.145Z,2.97
2022-07-29T09:01:54.675Z,3.90
2022-07-29T09:04:22.307Z,3.53
2022-07-29T09:06:52.408Z,3.60
2022-07-29T09:09:19.571Z,3.30
2022-07-29T09:11:46.381Z,3.10
2022-07-29T09:14:14.417Z,3.25
2022-07-29T09:16:56.227Z,3.47
2022-07-29T09:19:25.895Z,3.30
2022-07-29T09:21:59.550Z,2.78
2022-07-29T09:24:28.436Z,2.90
2022-07-29T09:26:55.549Z,3.03
2022-07-29T09:29:25.552Z,2.58
2022-07-29T09:31:54.948Z,3.08
2022-07-29T09:34:32.068Z,2.70
2022-07-29T09:36:59.138Z,2.72
2022-07-29T09:39:34.301Z,3.00
2022-07-29T09:42:06.663Z,3.22
2022-07-29T09:44:49.363Z,3.75
2022-07-29T09:47:18.050Z,3.13
2022-07-29T09:49:59.964Z,2.58
2022-07-29T09:52:27.880Z,3.40
2022-07-29T09:55:04.793Z,3.25
2022-07-29T09:57:31.537Z,1.98
2022-07-29T10:00:01.577Z,2.47
2022-07-29T10:02:33.223Z,2.30
2022-07-29T10:05:01.471Z,2.20
2022-07-29T10:07:57.371Z,2.10
2022-07-29T10:10:32.143Z,2.92
2022-07-29T10:13:15.343Z,3.13
2022-07-29T10:15:46.803Z,2.92
2022-07-29T10:18:15.346Z,2.30
2022-07-29T10:20:42.581Z,2.42
2022-07-29T10:23:09.927Z,2.85
2022-07-29T10:25:36.597Z,2.55
2022-07-29T10:28:03.918Z,2.40
2022-07-29T10:30:31.860Z,2.17
2022-07-29T10:33:19.842Z,2.40
2022-07-29T10:36:01.566Z,2.50
2022-07-29T10:38:34.022Z,2.30
2022-07-29T10:41:29.086Z,1.98
2022-07-29T10:44:06.520Z,2.08
2022-07-29T10:46:39.054Z,2.65
2022-07-29T10:49:16.421Z,2.10
2022-07-29T10:52:06.586Z,2.45
2022-07-29T10:54:48.499Z,2.00
2022-07-29T10:57:53.463Z,1.90
2022-07-29T11:00:16.755Z,2.30
2022-07-29T11:02:45.490Z,2.65
2022-07-29T11:05:20.436Z,1.92
2022-07-29T11:08:20.181Z,1.42
2022-07-29T11:11:22.024Z,1.40
2022-07-29T11:13:52.389Z,1.93
2022-07-29T11:16:25.103Z,1.52
2022-07-29T11:19:14.395Z,1.80
2022-07-29T11:21:54.030Z,1.67
2022-07-29T11:24:28.775Z,1.70
2022-07-29T11:29:58.912Z,1.63
2022-07-29T11:32:38.628Z,1.70
2022-07-29T11:35:17.784Z,1.60
2022-07-29T11:37:52.566Z,1.63
2022-07-29T11:40:22.942Z,1.75
2022-07-29T11:42:52.221Z,1.55
2022-07-29T11:45:41.495Z,1.60
2022-07-29T11:48:31.405Z,2.08
2022-07-29T11:50:59.775Z,1.77
2022-07-29T11:53:29.197Z,1.65
2022-07-29T11:56:33.297Z,1.48
2022-07-29T11:59:08.402Z,1.70
2022-07-29T12:01:35.417Z,1.70
2022-07-29T12:04:08.951Z,1.08
2022-07-29T12:06:36.217Z,1.30
2022-07-29T12:09:14.466Z,1.52
2022-07-29T12:11:41.545Z,1.50
2022-07-29T12:14:32.143Z,1.60
2022-07-29T12:17:01.570Z,1.58
2022-07-29T12:19:30.162Z,1.67
2022-07-29T12:22:00.853Z,2.08
2022-07-29T12:24:44.991Z,1.60
2022-07-29T12:27:12.769Z,2.05
2022-07-29T12:29:41.998Z,1.75
2022-07-29T12:34:47.278Z,1.25
2022-07-29T12:37:14.316Z,1.50
2022-07-29T12:39:41.325Z,1.42
2022-07-29T12:42:19.039Z,1.88
2022-07-29T12:44:50.701Z,1.50
2022-07-29T12:47:19.312Z,1.70
2022-07-29T12:49:48.351Z,1.30
2022-07-29T12:52:28.872Z,1.65
2022-07-29T12:54:58.980Z,1.58
2022-07-29T12:57:29.213Z,1.77
2022-07-29T13:00:14.231Z,1.90
2022-07-29T13:02:43.375Z,1.73
2022-07-29T13:05:12.327Z,1.80
2022-07-29T13:07:54.534Z,1.73
2022-07-29T13:10:23.884Z,1.65
2022-07-29T13:13:11.596Z,1.40
2022-07-29T13:15:43.641Z,1.63
2022-07-29T13:18:39.221Z,1.60
2022-07-29T13:21:16.674Z,1.67
2022-07-29T13:23:45.529Z,2.33
2022-07-29T13:26:13.017Z,1.50
2022-07-29T13:28:44.224Z,2.28
2022-07-29T13:31:11.299Z,2.08
2022-07-29T13:33:38.025Z,1.92
2022-07-29T13:36:04.996Z,1.58
2022-07-29T13:38:31.728Z,1.88
2022-07-29T13:40:58.789Z,1.77
2022-07-29T13:43:25.598Z,2.25
2022-07-29T13:45:53.017Z,1.83
2022-07-29T13:48:19.789Z,2.05
2022-07-29T13:50:47.713Z,2.22
2022-07-29T13:53:18.177Z,2.10
2022-07-29T13:55:45.351Z,1.80
2022-07-29T14:00:37.531Z,2.22
2022-07-29T14:03:04.201Z,1.90
2022-07-29T14:05:30.847Z,1.50
2022-07-29T14:07:57.467Z,2.38
2022-07-29T14:10:24.331Z,1.83
2022-07-29T14:12:53.761Z,2.03
2022-07-29T14:15:21.242Z,2.20
2022-07-29T14:17:47.865Z,1.75
2022-07-29T14:20:17.088Z,2.63
2022-07-29T14:22:45.131Z,2.83
2022-07-29T14:25:15.797Z,2.15
2022-07-29T14:27:44.233Z,1.60
2022-07-29T14:30:11.883Z,2.00
2022-07-29T14:32:38.627Z,2.00
2022-07-29T14:35:06.776Z,1.98
2022-07-29T14:37:40.170Z,1.42
2022-07-29T14:42:34.846Z,2.30
2022-07-29T14:45:01.533Z,2.10
2022-07-29T14:47:28.203Z,1.85
2022-07-29T14:49:54.874Z,1.60
2022-07-29T14:52:21.701Z,1.40
2022-07-29T14:54:48.386Z,1.73
2022-07-29T14:57:15.060Z,2.00
2022-07-29T14:59:41.691Z,1.92
2022-07-29T15:02:08.485Z,1.92
2022-07-29T15:04:35.537Z,2.03
2022-07-29T15:07:02.871Z,1.80
2022-07-29T15:09:29.517Z,1.92
2022-07-29T15:11:56.864Z,1.83
2022-07-29T15:14:23.901Z,1.88
2022-07-29T15:16:52.934Z,1.95
2022-07-29T15:19:19.956Z,2.00
2022-07-29T15:21:48.402Z,2.30
2022-07-29T15:24:16.569Z,2.35
2022-07-29T15:26:44.721Z,1.90
2022-07-29T15:29:11.442Z,1.58
2022-07-29T15:31:38.296Z,2.10
2022-07-29T15:34:06.551Z,2.17
2022-07-29T15:36:51.328Z,2.20
2022-07-29T15:39:19.412Z,2.15
2022-07-29T15:41:46.570Z,2.17
2022-07-29T15:44:13.244Z,2.15
2022-07-29T15:46:59.203Z,2.25
2022-07-29T15:49:47.289Z,1.58
2022-07-29T15:52:25.223Z,1.55
2022-07-29T15:54:56.639Z,2.33
2022-07-29T15:57:24.596Z,1.90
2022-07-29T15:59:51.966Z,1.70
2022-07-29T16:02:18.913Z,1.80
2022-07-29T16:04:45.584Z,1.60
2022-07-29T16:07:12.372Z,2.08
2022-07-29T16:09:41.243Z,1.67
2022-07-29T16:12:15.053Z,1.77
2022-07-29T16:14:44.981Z,1.60
2022-07-29T16:17:14.334Z,1.60
2022-07-29T16:19:41.401Z,2.30
2022-07-29T16:22:08.007Z,1.85
2022-07-29T16:24:34.647Z,1.98
2022-07-29T16:27:01.848Z,2.38
2022-07-29T16:29:29.205Z,1.80
2022-07-29T16:31:55.948Z,2.00
2022-07-29T16:34:22.726Z,1.75
2022-07-29T16:36:49.379Z,2.22
2022-07-29T16:39:16.231Z,2.00
2022-07-29T16:41:42.933Z,2.25
2022-07-29T16:44:09.656Z,2.00
2022-07-29T16:46:37.556Z,2.47
2022-07-29T16:49:06.585Z,2.03
2022-07-29T16:51:33.242Z,1.73
2022-07-29T16:53:59.910Z,1.50
2022-07-29T16:56:26.709Z,2.47
2022-07-29T16:58:53.366Z,1.63
2022-07-29T17:01:20.165Z,1.83
2022-07-29T17:04:05.681Z,1.88
2022-07-29T17:06:42.048Z,1.88
2022-07-29T17:09:10.812Z,1.92
2022-07-29T17:11:53.087Z,2.13
2022-07-29T17:14:25.464Z,2.17
2022-07-29T17:17:00.140Z,2.00
2022-07-29T17:19:34.014Z,2.33
2022-07-29T17:22:15.598Z,1.90
2022-07-29T17:24:45.900Z,1.65
2022-07-29T17:27:12.997Z,2.08
2022-07-29T17:29:39.997Z,1.85
2022-07-29T17:32:08.120Z,1.88
2022-07-29T17:34:39.225Z,2.40
2022-07-29T17:37:11.093Z,1.83
2022-07-29T17:39:41.002Z,1.98
2022-07-29T17:42:13.610Z,1.95
2022-07-29T17:44:40.658Z,2.25
2022-07-29T17:47:15.644Z,1.88
2022-07-29T17:49:43.673Z,2.10
2022-07-29T17:52:10.489Z,2.08
2022-07-29T17:54:37.203Z,2.00
2022-07-29T17:57:06.100Z,1.70
2022-07-29T17:59:32.908Z,1.83
2022-07-29T18:02:00.347Z,1.77
2022-07-29T18:04:28.550Z,2.20
2022-07-29T18:06:55.545Z,1.95
2022-07-29T18:09:22.549Z,1.92
2022-07-29T18:11:49.304Z,2.35
2022-07-29T18:14:16.350Z,2.17
2022-07-29T18:16:43.057Z,2.22
2022-07-29T18:19:09.776Z,1.88
2022-07-29T18:21:43.798Z,1.73
2022-07-29T18:24:17.591Z,2.13
2022-07-29T18:26:44.401Z,2.13
2022-07-29T18:29:11.042Z,1.83
2022-07-29T18:31:37.763Z,2.38
2022-07-29T18:34:04.403Z,1.90
2022-07-29T18:36:31.038Z,2.10
2022-07-29T18:38:57.688Z,2.00
2022-07-29T18:41:26.816Z,1.60
2022-07-29T18:43:55.708Z,2.45
2022-07-29T18:46:22.384Z,1.90
2022-07-29T18:48:49.747Z,1.70
2022-07-29T18:51:18.887Z,1.42
2022-07-29T18:53:45.594Z,1.73
2022-07-29T18:56:12.405Z,1.90
2022-07-29T18:58:41.556Z,1.50
2022-07-29T19:01:08.217Z,2.45
2022-07-29T19:03:35.060Z,1.60
2022-07-29T19:06:01.959Z,1.67
2022-07-29T19:08:28.765Z,1.70
2022-07-29T19:10:55.538Z,1.98
2022-07-29T19:13:23.208Z,1.90
2022-07-29T19:15:49.931Z,1.80
2022-07-29T19:18:16.543Z,1.95
2022-07-29T19:20:43.499Z,1.92
2022-07-29T19:23:10.360Z,1.77
2022-07-29T19:25:37.413Z,1.90
2022-07-29T19:28:20.921Z,2.20
2022-07-29T19:30:47.725Z,2.92
2022-07-29T19:33:18.926Z,2.53
2022-07-29T19:35:47.627Z,2.53
2022-07-29T19:38:15.990Z,2.15
2022-07-29T19:40:42.887Z,2.10
2022-07-29T19:43:51.327Z,1.67
2022-07-29T19:45:58.941Z,2.22
2022-07-29T19:48:25.828Z,2.25
2022-07-29T19:50:52.453Z,2.22
2022-07-29T19:53:19.144Z,2.20
2022-07-29T19:55:48.235Z,2.13
2022-07-29T19:58:15.298Z,1.92
2022-07-29T20:00:42.226Z,2.30
2022-07-29T20:03:13.310Z,2.28
2022-07-29T20:05:40.103Z,2.13
2022-07-29T20:08:06.689Z,2.30
2022-07-29T20:10:33.604Z,2.50
2022-07-29T20:13:00.411Z,1.98
2022-07-29T20:15:27.100Z,2.25
2022-07-29T20:17:57.218Z,3.58
2022-07-29T20:20:25.305Z,2.85
2022-07-29T20:22:52.991Z,2.63
2022-07-29T20:25:19.686Z,2.67
2022-07-29T20:27:46.357Z,2.60
2022-07-29T20:30:14.138Z,2.60
2022-07-29T20:32:43.785Z,2.50
2022-07-29T20:35:11.975Z,2.70
2022-07-29T20:37:52.499Z,2.50
2022-07-29T20:40:25.025Z,2.72
2022-07-29T20:42:52.201Z,2.30
2022-07-29T20:45:20.018Z,2.92
2022-07-29T20:47:46.760Z,2.78
2022-07-29T20:50:15.724Z,3.35
2022-07-29T20:52:44.065Z,3.75
2022-07-29T20:55:11.012Z,2.95
2022-07-29T20:57:38.895Z,3.03
2022-07-29T21:00:07.250Z,3.22
2022-07-29T21:02:34.160Z,3.45
2022-07-29T21:05:01.200Z,3.10
2022-07-29T21:07:27.929Z,2.85
2022-07-29T21:09:54.645Z,4.20
2022-07-29T21:12:21.527Z,3.65
2022-07-29T21:14:48.603Z,3.13
2022-07-29T21:17:16.578Z,2.92
2022-07-29T21:19:43.367Z,3.28
2022-07-29T21:22:10.408Z,2.63
2022-07-29T21:24:37.188Z,3.47
2022-07-29T21:27:22.771Z,3.17
2022-07-29T21:29:50.063Z,3.35
2022-07-29T21:32:27.563Z,3.17
2022-07-29T21:34:56.690Z,4.30
2022-07-29T21:37:28.937Z,3.47
2022-07-29T21:39:55.641Z,3.00
2022-07-29T21:42:22.632Z,2.72
2022-07-29T21:44:51.155Z,3.10
2022-07-29T21:47:17.815Z,2.88
2022-07-29T21:49:46.320Z,3.30
2022-07-29T21:52:13.299Z,3.10
2022-07-29T21:54:41.688Z,3.50
2022-07-29T21:57:08.929Z,2.90
2022-07-29T21:59:35.761Z,3.88
2022-07-29T22:02:02.531Z,5.13
2022-07-29T22:04:30.329Z,3.65
2022-07-29T22:06:58.309Z,3.63
2022-07-29T22:09:25.687Z,4.10
2022-07-29T22:11:52.419Z,3.50
2022-07-29T22:14:19.324Z,4.00
2022-07-29T22:16:46.880Z,4.43
2022-07-29T22:19:14.317Z,3.22
2022-07-29T22:21:41.561Z,3.38
2022-07-29T22:24:09.849Z,3.60
2022-07-29T22:26:36.665Z,3.80
2022-07-29T22:29:03.355Z,3.45
2022-07-29T22:31:30.026Z,3.67
2022-07-29T22:33:56.728Z,4.78
2022-07-29T22:36:23.321Z,2.83
2022-07-29T22:38:51.975Z,4.00
2022-07-29T22:41:19.205Z,4.30
2022-07-29T22:43:46.048Z,4.13
2022-07-29T22:46:12.885Z,3.78
2022-07-29T22:48:40.173Z,4.15
2022-07-29T22:51:07.351Z,3.70
2022-07-29T22:53:34.081Z,4.10
2022-07-29T22:56:00.718Z,4.22
2022-07-29T22:58:27.572Z,3.85
2022-07-29T23:00:54.641Z,4.00
2022-07-29T23:03:21.973Z,4.63
2022-07-29T23:05:50.688Z,4.18
2022-07-29T23:08:18.245Z,4.13
2022-07-29T23:10:45.332Z,3.67
2022-07-29T23:13:11.997Z,4.68
2022-07-29T23:15:38.676Z,4.05
2022-07-29T23:18:05.385Z,3.88
2022-07-29T23:20:32.159Z,4.65
2022-07-29T23:22:58.878Z,3.65
2022-07-29T23:25:25.543Z,4.38
2022-07-29T23:27:52.187Z,4.82
2022-07-29T23:30:19.057Z,5.25
2022-07-29T23:32:45.827Z,3.15
2022-07-29T23:35:12.628Z,4.88
2022-07-29T23:37:39.740Z,3.90
2022-07-29T23:40:10.830Z,4.28
2022-07-29T23:42:42.290Z,4.03
2022-07-29T23:45:10.544Z,4.00
2022-07-29T23:47:37.254Z,4.22
2022-07-29T23:50:05.523Z,3.95
2022-07-29T23:52:32.316Z,3.67
2022-07-29T23:55:37.809Z,4.88
2022-07-29T23:57:46.209Z,4.38
